Time;durP1;ratioP1;P1;durP2;ratioP2;P2;SDS_P1;SDS_P2;PMS_P1;PMS_P2;Temp;Humidity;BMP_temperature;BMP_pressure;BME280_temperature;BME280_humidity;BME280_pressure;Samples;Min_cycle;Max_cycle;Signal;HPM_P1;HPM_P2
2024/03/28 00:01:12;;;;;;;2.43;1.40;;;10.20;1.00;;;;;;5012346;28;20174;-82
2024/03/28 00:03:38;;;;;;;2.63;1.30;;;10.30;1.00;;;;;;5012898;28;20201;-82
2024/03/28 00:06:04;;;;;;;3.33;1.40;;;10.30;1.00;;;;;;5013168;28;20644;-82
2024/03/28 00:08:30;;;;;;;1.80;1.40;;;10.40;1.00;;;;;;5012874;28;20710;-82
2024/03/28 00:10:56;;;;;;;2.10;1.50;;;10.40;1.00;;;;;;5013467;28;20174;-81
2024/03/28 00:13:22;;;;;;;2.50;1.50;;;10.50;1.00;;;;;;5014445;28;20198;-82
2024/03/28 00:16:05;;;;;;;4.53;1.50;;;10.50;1.00;;;;;;5013892;28;20213;-82
2024/03/28 00:18:31;;;;;;;2.43;1.40;;;10.50;1.00;;;;;;5013708;28;20702;-83
2024/03/28 00:20:58;;;;;;;2.90;1.40;;;10.40;1.00;;;;;;5013542;28;20175;-82
2024/03/28 00:23:25;;;;;;;2.53;1.40;;;10.30;1.00;;;;;;5012849;28;20170;-82
2024/03/28 00:25:51;;;;;;;2.03;1.40;;;10.30;1.00;;;;;;5012203;28;20210;-83
2024/03/28 00:28:17;;;;;;;3.20;1.70;;;10.30;1.00;;;;;;5015521;28;20193;-81
2024/03/28 00:30:43;;;;;;;1.87;1.40;;;10.20;1.00;;;;;;5015447;28;20170;-81
2024/03/28 00:33:09;;;;;;;2.63;1.50;;;10.20;1.00;;;;;;5014992;28;20181;-82
2024/03/28 00:35:34;;;;;;;2.17;1.40;;;10.20;1.00;;;;;;5014583;28;20178;-85
2024/03/28 00:38:00;;;;;;;3.27;2.00;;;10.20;1.00;;;;;;5047620;28;20178;-82
2024/03/28 00:40:26;;;;;;;4.90;1.73;;;10.30;1.00;;;;;;5048657;28;20182;-81
2024/03/28 00:42:52;;;;;;;2.77;1.50;;;10.20;1.00;;;;;;5015531;28;20182;-81
2024/03/28 00:45:18;;;;;;;3.83;1.57;;;10.20;1.00;;;;;;5048574;28;20170;-82
2024/03/28 00:47:44;;;;;;;2.57;1.40;;;10.30;1.00;;;;;;5016227;28;20605;-82
2024/03/28 00:50:09;;;;;;;3.30;1.50;;;10.30;1.00;;;;;;5017244;28;20171;-83
2024/03/28 00:52:35;;;;;;;2.60;1.60;;;10.30;1.00;;;;;;5015298;28;20167;-82
2024/03/28 00:55:01;;;;;;;2.47;1.73;;;10.30;1.00;;;;;;5016422;28;20562;-82
2024/03/28 00:57:26;;;;;;;4.47;1.47;;;10.30;1.00;;;;;;5015865;28;20178;-82
2024/03/28 00:59:52;;;;;;;2.90;1.80;;;10.30;1.00;;;;;;5017089;28;20171;-83
2024/03/28 01:02:18;;;;;;;2.10;1.70;;;10.20;1.00;;;;;;5015588;28;20209;-82
2024/03/28 01:04:43;;;;;;;2.47;1.60;;;10.10;1.00;;;;;;5015101;28;20707;-82
2024/03/28 01:07:09;;;;;;;2.00;1.60;;;10.10;1.00;;;;;;5013633;28;20206;-84
2024/03/28 01:09:34;;;;;;;2.07;1.70;;;10.10;1.00;;;;;;5012997;28;20174;-81
2024/03/28 01:12:00;;;;;;;2.90;1.57;;;10.10;1.00;;;;;;5014042;28;20788;-82
2024/03/28 01:14:27;;;;;;;2.30;1.80;;;10.10;1.00;;;;;;5013803;28;20635;-82
2024/03/28 01:16:53;;;;;;;2.30;1.77;;;10.10;1.00;;;;;;5015632;28;20174;-81
2024/03/28 01:19:18;;;;;;;2.57;1.80;;;10.10;1.00;;;;;;5015807;28;20586;-82
2024/03/28 01:21:44;;;;;;;2.93;1.90;;;10.10;1.00;;;;;;5014979;28;20174;-82
2024/03/28 01:24:10;;;;;;;2.60;1.70;;;10.10;1.00;;;;;;5015320;28;20174;-83
2024/03/28 01:26:36;;;;;;;3.33;1.90;;;10.20;1.00;;;;;;5015562;28;20744;-83
2024/03/28 01:29:02;;;;;;;3.10;1.60;;;10.30;1.00;;;;;;5015475;28;20531;-83
2024/03/28 01:31:27;;;;;;;3.13;1.80;;;10.40;1.00;;;;;;5013881;28;20174;-83
2024/03/28 01:33:53;;;;;;;3.30;2.10;;;10.50;1.00;;;;;;5016293;28;20685;-81
2024/03/28 01:36:19;;;;;;;2.53;1.77;;;10.50;1.00;;;;;;5014268;28;20178;-82
2024/03/28 01:38:44;;;;;;;3.63;2.23;;;10.50;1.00;;;;;;5012891;28;20293;-82
2024/03/28 01:41:10;;;;;;;2.63;2.13;;;10.50;1.00;;;;;;5015094;28;20561;-81
2024/03/28 01:43:39;;;;;;;3.10;2.30;;;10.60;1.00;;;;;;5015034;28;20171;-82
2024/03/28 01:46:06;;;;;;;3.27;2.00;;;10.60;1.00;;;;;;5016815;28;20194;-81
2024/03/28 01:48:33;;;;;;;2.37;1.73;;;10.40;1.00;;;;;;5016433;28;20178;-82
2024/03/28 01:51:00;;;;;;;3.03;1.97;;;10.50;1.00;;;;;;5014726;28;20174;-82
2024/03/28 01:53:26;;;;;;;2.20;1.60;;;10.40;1.00;;;;;;5014337;28;20182;-83
2024/03/28 01:55:52;;;;;;;2.57;1.60;;;10.50;1.00;;;;;;5016198;28;20628;-82
2024/03/28 01:58:17;;;;;;;2.10;1.63;;;10.30;1.00;;;;;;5016120;28;20213;-82
2024/03/28 02:00:44;;;;;;;4.00;1.63;;;10.60;1.00;;;;;;5015446;28;20619;-82
2024/03/28 02:03:10;;;;;;;3.03;1.70;;;10.70;1.00;;;;;;5012613;28;20248;-82
2024/03/28 02:05:36;;;;;;;3.13;1.97;;;10.80;1.00;;;;;;5013911;28;20249;-82
2024/03/28 02:08:02;;;;;;;3.83;1.70;;;10.60;1.00;;;;;;5014845;28;20178;-83
2024/03/28 02:10:28;;;;;;;3.20;1.80;;;10.70;1.00;;;;;;5014610;28;20205;-82
2024/03/28 02:12:54;;;;;;;2.10;1.60;;;10.60;1.00;;;;;;5014000;28;20644;-83
2024/03/28 02:15:20;;;;;;;4.90;1.53;;;10.60;1.00;;;;;;5014020;28;20275;-81
2024/03/28 02:17:50;;;;;;;3.00;1.60;;;10.70;1.00;;;;;;5013750;28;20619;-81
2024/03/28 02:20:18;;;;;;;2.63;1.70;;;10.70;1.00;;;;;;5015057;28;20170;-81
2024/03/28 02:22:44;;;;;;;2.30;1.57;;;10.60;1.00;;;;;;5013298;28;20256;-82
2024/03/28 02:25:10;;;;;;;2.73;1.90;;;10.70;1.00;;;;;;5014365;28;20623;-80
2024/03/28 02:27:37;;;;;;;3.30;1.80;;;10.60;1.00;;;;;;5014078;28;20206;-82
2024/03/28 02:30:13;;;;;;;2.47;1.67;;;10.40;1.00;;;;;;5013311;28;20175;-83
2024/03/28 02:32:39;;;;;;;3.60;1.87;;;10.50;1.00;;;;;;5012327;28;20592;-82
2024/03/28 02:35:06;;;;;;;2.43;1.50;;;10.50;1.00;;;;;;5012615;28;20182;-82
2024/03/28 02:37:32;;;;;;;3.00;1.77;;;10.40;1.00;;;;;;5014471;28;20182;-83
2024/03/28 02:40:00;;;;;;;2.87;2.10;;;10.30;1.00;;;;;;5013279;28;20177;-81
2024/03/28 02:42:26;;;;;;;2.30;1.87;;;10.30;1.00;;;;;;5014985;28;20162;-82
2024/03/28 02:44:52;;;;;;;3.43;1.90;;;10.30;1.00;;;;;;5013062;28;20495;-82
2024/03/28 02:47:18;;;;;;;1.93;1.70;;;10.20;1.00;;;;;;5015128;28;20208;-82
2024/03/28 02:49:44;;;;;;;4.63;1.83;;;10.20;1.00;;;;;;5045856;28;20171;-83
2024/03/28 02:52:10;;;;;;;2.17;1.60;;;10.10;1.00;;;;;;5046616;28;20181;-82
2024/03/28 02:54:36;;;;;;;2.23;1.80;;;10.00;1.00;;;;;;5013414;28;20166;-82
2024/03/28 02:57:04;;;;;;;3.37;1.90;;;9.90;1.00;;;;;;5014023;28;20635;-82
2024/03/28 02:59:30;;;;;;;3.07;1.97;;;9.90;1.00;;;;;;5014012;28;20181;-82
2024/03/28 03:01:56;;;;;;;3.07;1.90;;;9.90;1.00;;;;;;5013902;28;20178;-82
2024/03/28 03:04:23;;;;;;;3.67;2.10;;;10.00;1.00;;;;;;5014407;28;20178;-82
2024/03/28 03:06:49;;;;;;;2.30;1.80;;;9.90;1.00;;;;;;5013418;28;20212;-82
2024/03/28 03:09:15;;;;;;;4.03;2.03;;;9.80;1.00;;;;;;5015114;28;20682;-82
2024/03/28 03:11:41;;;;;;;3.30;2.10;;;9.80;1.00;;;;;;5014191;28;20198;-82
2024/03/28 03:14:07;;;;;;;2.20;1.70;;;9.90;1.00;;;;;;5013021;28;20179;-81
2024/03/28 03:16:33;;;;;;;4.10;1.80;;;10.00;1.00;;;;;;5014494;28;20174;-82
2024/03/28 03:19:02;;;;;;;2.50;1.77;;;10.00;1.00;;;;;;5012713;28;20232;-83
2024/03/28 03:21:28;;;;;;;2.60;1.63;;;10.00;1.00;;;;;;5013468;28;20178;-81
2024/03/28 03:24:00;;;;;;;3.03;1.80;;;9.80;1.00;;;;;;5013398;28;20313;-81
2024/03/28 03:26:30;;;;;;;2.67;1.97;;;9.70;1.00;;;;;;5012768;28;20202;-83
2024/03/28 03:34:37;;;;;;;4.97;1.50;;;9.70;1.00;;;;;;5014735;28;20186;-81
2024/03/28 03:37:13;;;;;;;2.40;1.60;;;9.80;1.00;;;;;;5014604;28;20170;-82
2024/03/28 03:39:39;;;;;;;2.67;1.50;;;9.80;1.00;;;;;;5013303;28;20188;-81
2024/03/28 03:42:05;;;;;;;3.13;1.50;;;9.80;1.00;;;;;;5012525;28;20630;-82
2024/03/28 03:44:31;;;;;;;3.00;1.50;;;9.80;1.00;;;;;;5014538;28;20166;-81
2024/03/28 03:46:56;;;;;;;3.23;1.90;;;9.90;1.00;;;;;;5014012;28;20206;-81
2024/03/28 03:49:22;;;;;;;2.37;1.60;;;10.00;1.00;;;;;;5013293;28;20608;-81
2024/03/28 03:51:48;;;;;;;1.97;1.50;;;9.90;1.00;;;;;;5013190;28;20250;-82
2024/03/28 03:54:14;;;;;;;3.43;1.80;;;9.70;1.00;;;;;;5014176;28;20170;-81
2024/03/28 03:56:40;;;;;;;3.10;1.67;;;9.60;1.00;;;;;;5013358;28;20541;-82
2024/03/28 03:59:06;;;;;;;2.43;1.70;;;9.50;1.00;;;;;;5014570;28;20635;-82
2024/03/28 04:01:32;;;;;;;3.23;1.80;;;9.50;1.00;;;;;;5013084;28;20654;-80
2024/03/28 04:03:58;;;;;;;3.67;1.73;;;9.50;1.00;;;;;;5016508;28;20205;-81
2024/03/28 04:06:24;;;;;;;3.50;1.93;;;9.50;1.00;;;;;;5018152;28;20202;-80
2024/03/28 04:08:50;;;;;;;2.60;1.90;;;9.50;1.00;;;;;;5016970;28;20216;-81
2024/03/28 04:11:16;;;;;;;3.70;1.90;;;9.50;1.00;;;;;;5017230;28;20175;-81
2024/03/28 04:13:41;;;;;;;3.37;1.70;;;9.50;1.00;;;;;;5015408;28;20198;-81
2024/03/28 04:16:07;;;;;;;3.53;1.67;;;9.40;1.00;;;;;;5048443;28;20576;-81
2024/03/28 04:18:33;;;;;;;2.47;1.57;;;9.30;1.00;;;;;;5015832;28;20623;-82
2024/03/28 04:20:59;;;;;;;3.33;1.87;;;9.30;1.00;;;;;;5015879;28;20250;-82
2024/03/28 04:23:24;;;;;;;2.90;1.63;;;9.30;1.00;;;;;;5018071;28;20515;-82
2024/03/28 04:25:54;;;;;;;2.77;1.70;;;9.30;1.00;;;;;;5016470;28;20682;-81
2024/03/28 04:28:20;;;;;;;3.27;2.07;;;9.30;1.00;;;;;;5016344;28;20170;-83
2024/03/28 04:30:46;;;;;;;1.87;1.50;;;9.30;1.00;;;;;;5017929;28;20681;-81
2024/03/28 04:33:12;;;;;;;2.57;1.50;;;9.30;1.00;;;;;;5017109;28;20180;-82
2024/03/28 04:35:38;;;;;;;3.07;1.77;;;9.30;1.00;;;;;;5016026;28;20174;-81
2024/03/28 04:38:04;;;;;;;3.80;2.00;;;9.30;1.00;;;;;;5016464;28;20174;-81
2024/03/28 04:40:31;;;;;;;2.57;1.80;;;9.30;1.00;;;;;;5016529;28;20511;-81
2024/03/28 04:42:56;;;;;;;4.03;1.90;;;9.30;1.00;;;;;;5014319;28;20170;-81
2024/03/28 04:45:22;;;;;;;4.80;1.90;;;9.30;1.00;;;;;;5048420;28;20579;-81
2024/03/28 04:47:49;;;;;;;2.90;1.53;;;9.20;1.00;;;;;;5016510;28;20180;-82
2024/03/28 04:50:15;;;;;;;2.90;2.07;;;9.30;1.00;;;;;;5048806;28;20205;-81
2024/03/28 04:52:41;;;;;;;3.60;1.90;;;9.30;1.00;;;;;;5015329;28;20205;-82
2024/03/28 04:55:07;;;;;;;2.10;1.60;;;9.40;1.00;;;;;;5015655;28;20252;-80
2024/03/28 04:57:34;;;;;;;3.20;1.77;;;9.30;1.00;;;;;;5015124;28;20162;-82
2024/03/28 05:00:00;;;;;;;2.80;1.93;;;9.40;1.00;;;;;;5015919;28;20163;-82
2024/03/28 05:02:26;;;;;;;3.40;1.60;;;9.30;1.00;;;;;;5047003;28;20201;-82
2024/03/28 05:04:52;;;;;;;2.10;1.57;;;9.20;1.00;;;;;;5015453;28;20170;-82
2024/03/28 05:07:17;;;;;;;3.63;1.50;;;9.20;1.00;;;;;;5014754;28;20304;-81
2024/03/28 05:09:46;;;;;;;3.50;1.70;;;9.10;1.00;;;;;;5014751;28;20163;-81
2024/03/28 05:12:13;;;;;;;1.67;1.50;;;9.00;5.00;;;;;;5014027;28;20256;-81
2024/03/28 05:14:39;;;;;;;2.23;1.60;;;9.00;9.90;;;;;;5014615;28;20178;-81
2024/03/28 05:17:06;;;;;;;2.57;1.57;;;8.90;15.30;;;;;;5015078;28;20202;-82
2024/03/28 05:19:32;;;;;;;2.67;1.57;;;8.90;23.60;;;;;;5016149;28;20339;-81
2024/03/28 05:21:57;;;;;;;3.37;1.30;;;8.80;33.20;;;;;;5013840;28;20638;-80
2024/03/28 05:24:23;;;;;;;1.37;1.17;;;8.80;39.60;;;;;;5047508;28;20217;-81
2024/03/28 05:26:49;;;;;;;1.67;1.30;;;8.80;41.30;;;;;;5015009;28;20213;-82
2024/03/28 05:29:14;;;;;;;1.83;1.47;;;8.80;49.10;;;;;;5015011;28;20623;-81
2024/03/28 05:31:40;;;;;;;2.50;1.37;;;8.80;53.70;;;;;;5014834;28;20621;-80
2024/03/28 05:34:07;;;;;;;1.50;1.00;;;8.80;57.20;;;;;;5016753;28;20175;-81
2024/03/28 05:36:32;;;;;;;1.40;1.00;;;8.70;61.60;;;;;;5014442;28;20184;-81
2024/03/28 05:38:58;;;;;;;1.80;1.30;;;8.70;67.20;;;;;;5014660;28;20539;-81
2024/03/28 05:41:24;;;;;;;1.93;1.10;;;8.70;73.60;;;;;;5015317;28;20173;-81
2024/03/28 05:43:50;;;;;;;3.23;1.10;;;8.70;76.00;;;;;;5014830;28;20669;-81
2024/03/28 05:46:15;;;;;;;1.93;1.10;;;8.70;78.70;;;;;;5015885;28;20272;-81
2024/03/28 05:48:42;;;;;;;1.30;1.10;;;8.70;82.30;;;;;;5013770;28;20184;-81
2024/03/28 05:51:09;;;;;;;2.97;1.20;;;8.70;80.90;;;;;;5015004;28;20520;-82
2024/03/28 05:53:34;;;;;;;1.20;1.00;;;8.70;83.60;;;;;;5014393;28;20268;-82
2024/03/28 05:56:00;;;;;;;2.20;1.03;;;8.70;89.10;;;;;;5015549;28;20177;-81
2024/03/28 05:58:26;;;;;;;2.00;1.30;;;8.60;90.90;;;;;;5014648;28;20244;-82
2024/03/28 06:00:51;;;;;;;2.23;1.30;;;8.60;94.80;;;;;;5015579;28;20192;-82
2024/03/28 06:03:17;;;;;;;2.97;1.10;;;8.60;96.20;;;;;;5012968;28;20669;-82
2024/03/28 06:05:43;;;;;;;2.43;1.00;;;8.70;97.20;;;;;;5046740;28;20277;-81
2024/03/28 06:08:08;;;;;;;1.20;1.10;;;8.60;97.30;;;;;;5013985;28;20170;-81
2024/03/28 06:10:34;;;;;;;1.20;1.03;;;8.60;99.10;;;;;;5015356;28;20202;-81
2024/03/28 06:13:00;;;;;;;2.23;1.03;;;8.70;99.90;;;;;;5012501;28;20202;-82
2024/03/28 06:15:25;;;;;;;2.87;1.10;;;8.50;99.90;;;;;;5046197;28;20182;-81
2024/03/28 06:17:51;;;;;;;1.43;1.03;;;8.50;99.90;;;;;;5014039;28;20213;-80
2024/03/28 06:20:17;;;;;;;2.10;1.33;;;8.50;99.90;;;;;;5012949;28;20626;-81
2024/03/28 06:22:42;;;;;;;1.97;1.20;;;8.60;99.90;;;;;;5013459;28;20608;-81
2024/03/28 06:25:08;;;;;;;1.60;1.23;;;8.60;99.90;;;;;;5012317;28;20235;-81
2024/03/28 06:27:34;;;;;;;1.60;1.20;;;8.60;99.90;;;;;;5012597;28;20542;-82
2024/03/28 06:30:00;;;;;;;1.87;1.20;;;8.60;99.90;;;;;;5013315;28;20602;-82
2024/03/28 06:32:26;;;;;;;2.97;1.40;;;8.80;99.90;;;;;;5045752;28;20186;-81
2024/03/28 06:34:55;;;;;;;2.53;1.47;;;8.70;99.90;;;;;;5045470;28;20639;-81
2024/03/28 06:37:21;;;;;;;3.17;1.50;;;8.70;99.90;;;;;;5013151;28;20265;-81
2024/03/28 06:39:48;;;;;;;2.30;1.40;;;8.70;99.90;;;;;;5011448;28;20225;-80
2024/03/28 06:42:15;;;;;;;2.20;1.50;;;8.60;99.90;;;;;;5014232;28;20162;-81
2024/03/28 06:44:48;;;;;;;4.00;1.70;;;8.80;99.90;;;;;;5013805;28;20212;-81
2024/03/28 06:47:14;;;;;;;2.40;1.67;;;9.00;99.90;;;;;;5011703;28;20209;-82
2024/03/28 06:49:41;;;;;;;2.77;1.70;;;9.00;99.90;;;;;;5013784;28;20162;-81
2024/03/28 06:52:07;;;;;;;4.17;2.17;;;9.10;99.90;;;;;;5011701;28;20235;-80
2024/03/28 06:54:33;;;;;;;4.20;2.00;;;9.20;99.90;;;;;;5012573;28;20177;-81
2024/03/28 06:56:58;;;;;;;4.27;2.00;;;9.20;99.50;;;;;;5012589;28;20174;-82
2024/03/28 06:59:24;;;;;;;3.30;2.10;;;9.30;99.90;;;;;;5046092;28;20622;-81
2024/03/28 07:01:51;;;;;;;6.23;2.33;;;9.40;98.50;;;;;;5045807;28;20205;-82
2024/03/28 07:04:17;;;;;;;3.03;2.33;;;9.30;98.80;;;;;;5014373;28;20197;-83
2024/03/28 07:06:43;;;;;;;3.97;2.23;;;9.20;99.90;;;;;;5012530;28;20198;-81
2024/03/28 07:09:09;;;;;;;7.13;2.33;;;9.10;99.90;;;;;;5012757;28;20642;-81
2024/03/28 07:11:35;;;;;;;4.73;2.37;;;9.10;99.90;;;;;;5012781;28;20254;-83
2024/03/28 07:14:02;;;;;;;2.80;2.13;;;9.10;99.90;;;;;;5012315;28;20259;-82
2024/03/28 07:16:28;;;;;;;4.00;2.67;;;9.10;99.90;;;;;;5012167;28;20182;-80
2024/03/28 07:18:55;;;;;;;9.13;2.83;;;9.00;99.90;;;;;;5019282;28;20260;-82
2024/03/28 07:21:21;;;;;;;4.33;1.90;;;9.10;99.90;;;;;;5029061;28;20249;-81
2024/03/28 07:23:47;;;;;;;3.57;1.60;;;9.00;99.90;;;;;;5029363;28;20715;-81
2024/03/28 07:26:13;;;;;;;5.17;1.73;;;8.90;99.90;;;;;;5030583;28;20221;-82
2024/03/28 07:28:39;;;;;;;4.57;2.03;;;8.90;99.90;;;;;;5032337;28;20169;-80
2024/03/28 07:31:05;;;;;;;3.10;2.10;;;8.80;99.90;;;;;;5031313;28;20181;-82
2024/03/28 07:33:30;;;;;;;4.47;2.40;;;8.90;99.90;;;;;;5031234;28;20239;-82
2024/03/28 07:35:56;;;;;;;3.50;2.47;;;8.90;99.90;;;;;;5030594;28;20605;-82
2024/03/28 07:38:22;;;;;;;4.17;2.57;;;9.00;99.90;;;;;;5031294;28;20169;-82
2024/03/28 07:40:49;;;;;;;4.97;2.87;;;8.90;99.90;;;;;;5031490;28;20273;-82
2024/03/28 07:43:18;;;;;;;3.10;2.57;;;9.00;99.90;;;;;;5032116;28;20260;-82
2024/03/28 07:45:44;;;;;;;3.20;2.30;;;9.10;99.90;;;;;;5031592;28;20601;-83
2024/03/28 07:48:10;;;;;;;3.97;2.50;;;9.10;99.90;;;;;;5031972;28;20213;-83
2024/03/28 07:50:37;;;;;;;4.03;2.40;;;9.10;99.90;;;;;;5032594;28;20178;-83
2024/03/28 07:53:02;;;;;;;4.80;2.10;;;9.00;99.90;;;;;;5033890;28;20185;-81
2024/03/28 07:55:28;;;;;;;3.47;2.30;;;9.00;99.90;;;;;;5033626;28;20217;-81
2024/03/28 07:57:55;;;;;;;2.80;1.80;;;9.10;99.90;;;;;;5033871;28;20177;-81
2024/03/28 08:00:21;;;;;;;2.60;1.87;;;9.10;99.90;;;;;;5030970;28;20170;-83
2024/03/28 08:02:50;;;;;;;3.70;1.97;;;9.10;99.90;;;;;;5029958;28;20201;-82
2024/03/28 08:05:20;;;;;;;4.67;1.90;;;9.10;99.90;;;;;;5031147;28;20172;-82
2024/03/28 08:07:45;;;;;;;2.03;1.40;;;9.10;99.90;;;;;;5030976;28;20216;-81
2024/03/28 08:10:12;;;;;;;3.17;1.57;;;9.10;99.90;;;;;;5031275;28;20169;-82
2024/03/28 08:12:39;;;;;;;3.17;1.40;;;9.20;99.90;;;;;;5031234;28;20198;-82
2024/03/28 08:15:05;;;;;;;2.80;1.63;;;9.20;99.90;;;;;;5031716;28;20178;-81
2024/03/28 08:17:33;;;;;;;3.33;1.47;;;9.40;97.60;;;;;;5031709;28;20663;-82
2024/03/28 08:20:00;;;;;;;2.43;1.60;;;9.40;91.40;;;;;;5031648;28;20173;-81
2024/03/28 08:22:27;;;;;;;4.90;1.43;;;9.40;93.10;;;;;;5031018;28;20557;-82
2024/03/28 08:24:52;;;;;;;2.63;1.27;;;9.40;91.00;;;;;;5031722;28;20170;-82
2024/03/28 08:27:20;;;;;;;3.33;1.40;;;9.40;86.50;;;;;;5032147;28;20210;-82
2024/03/28 08:29:48;;;;;;;2.90;1.30;;;9.40;76.50;;;;;;5033957;28;20166;-82
2024/03/28 08:32:13;;;;;;;1.50;1.30;;;9.50;75.20;;;;;;5030565;28;20177;-82
2024/03/28 08:34:39;;;;;;;1.97;1.30;;;9.50;56.40;;;;;;5031591;28;20255;-82
2024/03/28 08:37:05;;;;;;;2.03;1.30;;;9.50;33.10;;;;;;5031761;28;20170;-82
2024/03/28 08:39:30;;;;;;;2.37;1.47;;;9.50;28.40;;;;;;5031992;28;20174;-83
2024/03/28 08:41:56;;;;;;;2.50;1.33;;;9.50;30.60;;;;;;5031929;28;20275;-83
2024/03/28 08:44:22;;;;;;;2.97;1.13;;;9.50;30.10;;;;;;5033815;28;20509;-82
2024/03/28 08:46:48;;;;;;;2.70;1.60;;;9.60;24.80;;;;;;5031587;28;20216;-82
2024/03/28 08:49:14;;;;;;;2.80;1.33;;;9.70;13.80;;;;;;5035507;28;20538;-82
2024/03/28 08:51:40;;;;;;;2.07;1.30;;;9.70;6.50;;;;;;5035706;28;20201;-81
2024/03/28 08:54:06;;;;;;;2.07;1.30;;;9.90;4.10;;;;;;5037199;28;20540;-82
2024/03/28 08:56:37;;;;;;;1.63;1.00;;;10.00;1.00;;;;;;5036374;28;20177;-82
2024/03/28 08:59:03;;;;;;;2.53;1.00;;;10.00;1.00;;;;;;5035797;28;20170;-83
2024/03/28 09:01:30;;;;;;;4.47;1.00;;;9.90;1.00;;;;;;5035105;28;20541;-82
2024/03/28 09:03:56;;;;;;;2.80;1.07;;;10.00;1.00;;;;;;5035237;28;20206;-82
2024/03/28 09:06:23;;;;;;;1.93;0.90;;;9.90;1.00;;;;;;5035636;28;20212;-82
2024/03/28 09:08:48;;;;;;;4.50;1.20;;;9.90;1.00;;;;;;5035377;28;20185;-84
2024/03/28 09:11:15;;;;;;;2.07;1.33;;;10.10;1.00;;;;;;5035844;28;20513;-83
2024/03/28 09:13:41;;;;;;;4.30;1.90;;;10.20;1.00;;;;;;5035482;28;20201;-83
2024/03/28 09:16:08;;;;;;;2.33;1.10;;;10.40;1.00;;;;;;5035586;28;20239;-83
2024/03/28 09:18:34;;;;;;;2.57;1.10;;;10.50;1.00;;;;;;5034520;28;20181;-82
2024/03/28 09:21:08;;;;;;;2.93;1.20;;;10.60;1.00;;;;;;5034555;28;20683;-83
2024/03/28 09:23:38;;;;;;;4.17;0.97;;;10.60;1.00;;;;;;5034133;28;20622;-82
2024/03/28 09:26:03;;;;;;;2.23;0.80;;;10.50;1.00;;;;;;5034815;28;20561;-82
2024/03/28 09:28:30;;;;;;;1.73;1.20;;;10.60;1.00;;;;;;5034518;28;20193;-82
2024/03/28 09:30:56;;;;;;;2.80;1.20;;;10.80;1.00;;;;;;5034874;28;20174;-82
2024/03/28 09:33:21;;;;;;;3.30;1.00;;;10.90;1.00;;;;;;5031205;28;20235;-82
2024/03/28 09:35:47;;;;;;;1.20;0.67;;;10.80;1.00;;;;;;5014206;28;20265;-81
2024/03/28 09:38:13;;;;;;;1.53;1.00;;;10.80;1.00;;;;;;5013624;28;20170;-81
2024/03/28 09:41:00;;;;;;;4.93;0.93;;;10.80;1.00;;;;;;5016155;28;20533;-82
2024/03/28 09:43:26;;;;;;;3.60;1.00;;;10.90;1.00;;;;;;5020630;28;20166;-82
2024/03/28 09:45:54;;;;;;;1.53;1.03;;;10.80;1.00;;;;;;5034064;28;20205;-84
2024/03/28 09:48:20;;;;;;;2.97;1.60;;;10.70;1.00;;;;;;5022597;28;20172;-82
2024/03/28 09:50:48;;;;;;;1.80;0.80;;;10.60;1.00;;;;;;5020612;28;20646;-82
2024/03/28 09:53:15;;;;;;;1.73;0.70;;;10.50;1.00;;;;;;5034717;28;20265;-81
2024/03/28 09:55:41;;;;;;;1.40;0.63;;;10.60;1.00;;;;;;5034775;28;20177;-82
2024/03/28 09:58:09;;;;;;;3.70;0.80;;;10.70;1.00;;;;;;5024820;28;20189;-82
2024/03/28 10:00:38;;;;;;;2.33;0.80;;;10.80;1.00;;;;;;5033221;28;20182;-82
2024/03/28 10:03:25;;;;;;;1.70;0.80;;;10.80;1.00;;;;;;5033669;28;20189;-81
2024/03/28 10:05:51;;;;;;;2.00;0.80;;;10.80;1.00;;;;;;4994517;28;20202;-83
2024/03/28 10:08:16;;;;;;;3.93;1.00;;;10.80;1.00;;;;;;5022399;28;20177;-82
2024/03/28 10:10:43;;;;;;;1.97;0.80;;;11.00;1.00;;;;;;5061910;28;20174;-83
2024/03/28 10:13:10;;;;;;;2.03;1.00;;;11.00;1.00;;;;;;5013786;28;20221;-82
2024/03/28 10:15:36;;;;;;;2.93;0.93;;;11.00;1.00;;;;;;5014398;28;20174;-83
2024/03/28 10:18:05;;;;;;;1.77;0.70;;;11.00;1.00;;;;;;5021403;28;20181;-83
2024/03/28 10:20:32;;;;;;;0.83;0.70;;;11.00;99.90;;;;;;5032984;28;20541;-83
2024/03/28 10:22:58;;;;;;;1.83;1.50;;;10.90;99.90;;;;;;5016042;28;20650;-82
2024/03/28 10:25:25;;;;;;;3.50;0.90;;;11.10;1.00;;;;;;5018231;28;20174;-83
2024/03/28 10:27:56;;;;;;;2.60;0.80;;;11.10;1.00;;;;;;5013261;28;20655;-82
2024/03/28 10:30:24;;;;;;;3.50;0.87;;;11.20;1.00;;;;;;5020378;28;20178;-82
2024/03/28 10:33:04;;;;;;;2.30;0.70;;;11.30;1.00;;;;;;5021510;28;20173;-82
2024/03/28 10:35:34;;;;;;;3.40;0.80;;;11.60;1.00;;;;;;5032057;28;20204;-83
2024/03/28 10:38:04;;;;;;;2.23;0.73;;;11.70;1.00;;;;;;5031711;28;20178;-81
2024/03/28 10:40:33;;;;;;;1.57;0.47;;;11.70;99.90;;;;;;5014364;28;20174;-82
2024/03/28 10:43:02;;;;;;;0.87;0.40;;;11.30;99.90;;;;;;5014955;28;20186;-82
2024/03/28 10:45:33;;;;;;;2.87;0.97;;;11.00;99.90;;;;;;5033083;28;20276;-83
2024/03/28 10:48:01;;;;;;;1.70;0.70;;;10.90;99.90;;;;;;5019381;28;20244;-82
2024/03/28 10:50:48;;;;;;;2.37;0.70;;;10.90;99.90;;;;;;5019432;28;20162;-82
2024/03/28 10:53:31;;;;;;;1.67;0.60;;;11.10;99.90;;;;;;5032670;28;20179;-82
2024/03/28 10:56:06;;;;;;;1.77;0.70;;;11.20;99.90;;;;;;5047231;28;20188;-82
2024/03/28 10:58:32;;;;;;;3.30;1.20;;;11.30;99.90;;;;;;5024077;28;20197;-82
2024/03/28 11:00:59;;;;;;;3.70;0.80;;;11.50;99.90;;;;;;5030777;28;20177;-83
2024/03/28 11:03:26;;;;;;;2.37;0.60;;;11.60;99.90;;;;;;5012675;28;20643;-83
2024/03/28 11:05:58;;;;;;;1.00;0.53;;;11.70;99.90;;;;;;5023198;28;20240;-81
2024/03/28 11:08:27;;;;;;;3.17;0.90;;;11.70;99.90;;;;;;5063255;28;20174;-82
2024/03/28 11:10:53;;;;;;;3.93;1.13;;;11.70;99.90;;;;;;5012828;28;20534;-83
2024/03/28 11:13:19;;;;;;;2.07;0.77;;;11.80;99.90;;;;;;5023332;28;20543;-84
2024/03/28 11:15:45;;;;;;;1.53;0.70;;;11.80;99.90;;;;;;5032018;28;20268;-82
2024/03/28 11:18:14;;;;;;;2.67;0.63;;;11.70;90.10;;;;;;5033985;28;20618;-82
2024/03/28 11:20:50;;;;;;;3.70;0.70;;;11.60;99.90;;;;;;5019824;28;20182;-81
2024/03/28 11:23:15;;;;;;;0.53;0.43;;;11.80;32.00;;;;;;5031495;28;20204;-83
2024/03/28 11:25:46;;;;;;;0.87;0.70;;;11.90;1.00;;;;;;5030279;28;20193;-82
2024/03/28 11:28:12;;;;;;;4.87;1.20;;;12.00;1.00;;;;;;5030651;28;20177;-83
2024/03/28 11:30:40;;;;;;;2.80;0.70;;;12.10;3.20;;;;;;5032437;28;20174;-83
2024/03/28 11:33:11;;;;;;;0.67;0.50;;;12.10;1.00;;;;;;5066101;28;20185;-82
2024/03/28 11:35:42;;;;;;;3.53;0.70;;;12.20;90.50;;;;;;5065545;28;20227;-82
2024/03/28 11:38:09;;;;;;;2.27;0.70;;;12.30;1.00;;;;;;5034522;28;20658;-82
2024/03/28 11:40:37;;;;;;;2.17;0.80;;;12.40;1.00;;;;;;5032725;28;20260;-82
2024/03/28 11:43:10;;;;;;;1.60;0.70;;;12.10;1.00;;;;;;5032206;28;20195;-83
2024/03/28 11:45:41;;;;;;;4.57;1.10;;;11.90;1.00;;;;;;5031036;28;20229;-81
2024/03/28 11:48:08;;;;;;;3.60;0.83;;;11.90;1.00;;;;;;5032216;28;20174;-82
2024/03/28 11:50:35;;;;;;;3.70;1.00;;;12.10;24.30;;;;;;5031769;28;20179;-82
2024/03/28 11:53:01;;;;;;;1.47;0.70;;;12.30;69.10;;;;;;5031057;28;20180;-83
2024/03/28 11:55:27;;;;;;;4.43;1.00;;;12.30;1.00;;;;;;5031072;28;20173;-83
2024/03/28 11:58:03;;;;;;;3.87;0.90;;;12.30;1.00;;;;;;5031314;28;20259;-82
2024/03/28 12:00:29;;;;;;;1.00;0.60;;;12.40;1.00;;;;;;5030873;28;20182;-82
2024/03/28 12:02:58;;;;;;;1.87;0.60;;;12.60;1.00;;;;;;5043922;28;20194;-82
2024/03/28 12:05:24;;;;;;;3.43;0.90;;;12.60;1.00;;;;;;4994771;28;20179;-84
2024/03/28 12:07:51;;;;;;;4.37;0.80;;;12.50;99.90;;;;;;4992882;28;20216;-82
2024/03/28 12:10:21;;;;;;;6.17;0.90;;;12.60;99.90;;;;;;4992087;28;20171;-81
2024/03/28 12:12:47;;;;;;;1.73;0.70;;;12.60;99.90;;;;;;4992240;28;20215;-81
2024/03/28 12:15:14;;;;;;;1.37;0.70;;;12.40;99.90;;;;;;4992137;28;20229;-84
2024/03/28 12:17:40;;;;;;;2.90;1.10;;;12.40;99.90;;;;;;4992279;28;20176;-83
2024/03/28 12:20:21;;;;;;;2.97;1.10;;;12.30;52.50;;;;;;4993496;28;20249;-82
2024/03/28 12:22:53;;;;;;;2.17;0.70;;;12.20;99.90;;;;;;4993506;28;20286;-82
2024/03/28 12:25:19;;;;;;;3.03;0.90;;;12.20;99.90;;;;;;5027997;28;20791;-84
2024/03/28 12:27:57;;;;;;;2.67;0.80;;;12.10;53.40;;;;;;4995188;28;20219;-82
2024/03/28 12:30:24;;;;;;;3.47;0.80;;;12.00;99.90;;;;;;4995456;28;20179;-82
2024/03/28 12:33:04;;;;;;;2.57;0.90;;;12.10;99.90;;;;;;4997491;28;20179;-82
2024/03/28 12:35:34;;;;;;;4.60;1.23;;;12.10;99.90;;;;;;5029421;28;20208;-81
2024/03/28 12:38:01;;;;;;;2.43;1.40;;;12.20;1.00;;;;;;4997104;28;20628;-81
2024/03/28 12:40:28;;;;;;;3.73;0.83;;;12.20;1.00;;;;;;4996994;28;20179;-81
2024/03/28 12:42:55;;;;;;;3.53;1.50;;;12.30;1.00;;;;;;4996212;28;20232;-83
2024/03/28 12:45:25;;;;;;;3.33;1.23;;;12.20;1.00;;;;;;5028809;28;20204;-84
2024/03/28 12:47:52;;;;;;;3.83;1.30;;;12.20;99.90;;;;;;4995639;28;20248;-83
2024/03/28 12:50:20;;;;;;;4.50;1.30;;;12.20;99.90;;;;;;4995746;28;20270;-82
2024/03/28 12:52:47;;;;;;;6.33;1.47;;;12.30;99.90;;;;;;5028596;28;20181;-82
2024/03/28 12:55:13;;;;;;;2.93;1.37;;;12.40;99.90;;;;;;4995407;28;20172;-83
2024/03/28 12:57:39;;;;;;;5.63;1.80;;;12.30;40.70;;;;;;4996795;28;20174;-81
2024/03/28 13:00:09;;;;;;;5.23;1.57;;;12.30;99.90;;;;;;4995992;28;20175;-81
2024/03/28 13:02:35;;;;;;;6.23;1.60;;;12.40;99.90;;;;;;5027634;28;20192;-84